Time;durP1;ratioP1;P1;durP2;ratioP2;P2;SDS_P1;SDS_P2;PMS_P1;PMS_P2;Temp;Humidity;BMP_temperature;BMP_pressure;BME280_temperature;BME280_humidity;BME280_pressure;Samples;Min_cycle;Max_cycle;Signal;HPM_P1;HPM_P2
2021/07/22 00:02:24;;;;;;;16.47;13.30;;;17.20;91.70;;;;;;5115326;28;20055;-65
2021/07/22 00:04:49;;;;;;;17.63;13.43;;;17.20;91.60;;;;;;5115676;28;20055;-66
2021/07/22 00:07:15;;;;;;;14.97;12.87;;;17.20;91.60;;;;;;5114632;28;20480;-66
2021/07/22 00:09:40;;;;;;;16.60;13.17;;;17.20;91.60;;;;;;5115164;28;20055;-66
2021/07/22 00:12:11;;;;;;;17.47;13.73;;;17.20;92.10;;;;;;5114335;28;20090;-65
2021/07/22 00:14:36;;;;;;;15.17;13.00;;;17.20;91.70;;;;;;5115278;28;20159;-65
2021/07/22 00:17:03;;;;;;;15.90;12.80;;;17.20;91.70;;;;;;5114810;28;20155;-66
2021/07/22 00:19:29;;;;;;;16.80;12.70;;;17.20;91.60;;;;;;5114521;28;20048;-66
2021/07/22 00:21:55;;;;;;;13.33;11.53;;;17.20;91.70;;;;;;5115114;27;20059;-66
2021/07/22 00:24:21;;;;;;;13.93;12.40;;;17.20;91.70;;;;;;5114616;28;20051;-66
2021/07/22 00:26:47;;;;;;;14.90;13.10;;;17.20;91.60;;;;;;5114320;28;20047;-66
2021/07/22 00:29:13;;;;;;;16.80;13.37;;;17.20;91.60;;;;;;5114745;28;20043;-66
2021/07/22 00:31:39;;;;;;;13.57;11.43;;;17.10;91.60;;;;;;5115200;28;20058;-66
2021/07/22 00:34:04;;;;;;;14.27;11.30;;;17.10;91.60;;;;;;5114009;28;20051;-66
2021/07/22 00:36:30;;;;;;;18.33;14.40;;;17.10;91.70;;;;;;5114715;28;20452;-66
2021/07/22 00:38:55;;;;;;;13.77;11.87;;;17.00;91.80;;;;;;5114605;28;20043;-66
2021/07/22 00:41:21;;;;;;;16.13;13.30;;;17.00;91.90;;;;;;5113741;28;20044;-66
2021/07/22 00:43:47;;;;;;;17.03;12.10;;;17.00;91.90;;;;;;5114755;28;20059;-65
2021/07/22 00:46:13;;;;;;;14.57;12.20;;;17.00;91.80;;;;;;5114381;28;20121;-66
2021/07/22 00:48:39;;;;;;;15.17;11.17;;;17.00;91.80;;;;;;5113754;28;20047;-66
2021/07/22 00:51:04;;;;;;;13.90;11.50;;;17.00;91.80;;;;;;5114229;28;20051;-66
2021/07/22 00:53:32;;;;;;;13.90;12.23;;;17.00;91.90;;;;;;5114145;28;20484;-66
2021/07/22 00:55:58;;;;;;;15.80;12.70;;;17.00;91.90;;;;;;5113708;28;20039;-66
2021/07/22 00:58:23;;;;;;;12.17;10.83;;;17.00;92.00;;;;;;5114049;28;20048;-66
2021/07/22 01:00:49;;;;;;;15.63;12.47;;;17.00;92.00;;;;;;5114258;28;20113;-66
2021/07/22 01:03:14;;;;;;;14.43;12.53;;;16.90;91.90;;;;;;5113112;28;20399;-66
2021/07/22 01:05:40;;;;;;;12.40;11.10;;;17.00;92.10;;;;;;5113828;28;20134;-66
2021/07/22 01:08:06;;;;;;;13.83;11.57;;;17.00;91.90;;;;;;5113737;28;20044;-65
2021/07/22 01:10:31;;;;;;;13.27;11.07;;;17.00;91.90;;;;;;5113603;28;20043;-66
2021/07/22 01:12:57;;;;;;;14.77;12.57;;;17.00;91.90;;;;;;5114161;28;20416;-66
2021/07/22 01:15:23;;;;;;;15.73;12.20;;;17.00;92.00;;;;;;5112930;28;20043;-66
2021/07/22 01:17:50;;;;;;;13.67;12.27;;;17.00;91.90;;;;;;5114084;28;20123;-66
2021/07/22 01:20:19;;;;;;;16.87;10.93;;;17.00;91.90;;;;;;5113463;28;20054;-66
2021/07/22 01:22:45;;;;;;;13.00;11.53;;;17.00;92.00;;;;;;5112693;28;20503;-66
2021/07/22 01:25:12;;;;;;;14.93;12.73;;;16.90;92.00;;;;;;5113734;28;20071;-66
2021/07/22 01:27:38;;;;;;;13.50;10.83;;;16.90;92.10;;;;;;5113885;28;20058;-66
2021/07/22 01:30:05;;;;;;;14.30;12.73;;;16.90;92.20;;;;;;5112973;28;20417;-66
2021/07/22 01:32:30;;;;;;;15.23;13.63;;;16.90;92.20;;;;;;5113539;27;20184;-66
2021/07/22 01:34:56;;;;;;;14.50;11.83;;;16.90;92.30;;;;;;5113868;28;20070;-66
2021/07/22 01:37:22;;;;;;;16.90;12.87;;;16.80;92.30;;;;;;5112385;28;20134;-66
2021/07/22 01:39:47;;;;;;;20.33;13.63;;;16.80;92.40;;;;;;5113519;28;20048;-66
2021/07/22 01:42:13;;;;;;;16.40;13.40;;;16.80;92.40;;;;;;5113081;28;20048;-66
2021/07/22 01:44:39;;;;;;;19.47;15.53;;;16.80;92.40;;;;;;5112657;28;20043;-66
2021/07/22 01:47:05;;;;;;;16.83;15.13;;;16.90;92.40;;;;;;5113001;28;20059;-66
2021/07/22 01:49:31;;;;;;;21.83;16.20;;;16.90;92.40;;;;;;5113328;28;20044;-66
2021/07/22 01:52:00;;;;;;;18.37;15.47;;;16.90;92.40;;;;;;5112181;28;20134;-66
2021/07/22 01:54:26;;;;;;;16.97;15.17;;;16.90;92.40;;;;;;5113318;28;20048;-66
2021/07/22 01:56:52;;;;;;;19.23;15.43;;;16.90;92.40;;;;;;5113249;28;20044;-66
2021/07/22 01:59:17;;;;;;;20.33;16.77;;;16.90;92.50;;;;;;5112109;28;20044;-66
2021/07/22 02:01:43;;;;;;;20.23;15.40;;;16.90;92.60;;;;;;5112980;28;20081;-66
2021/07/22 02:04:09;;;;;;;20.07;15.67;;;16.80;92.60;;;;;;5112628;28;20488;-66
2021/07/22 02:06:34;;;;;;;22.20;16.93;;;16.80;92.70;;;;;;5112384;28;20044;-66
2021/07/22 02:09:00;;;;;;;22.30;16.27;;;16.80;92.70;;;;;;5112397;28;20051;-66
2021/07/22 02:11:26;;;;;;;17.47;14.40;;;16.80;92.70;;;;;;5112380;28;20044;-66
2021/07/22 02:13:51;;;;;;;21.03;15.47;;;16.80;92.70;;;;;;5112430;28;20077;-66
2021/07/22 02:16:17;;;;;;;17.17;15.37;;;16.80;92.80;;;;;;5112063;28;20048;-66
2021/07/22 02:18:43;;;;;;;25.53;16.40;;;16.80;92.70;;;;;;5111623;28;20128;-65
2021/07/22 02:21:08;;;;;;;19.67;17.37;;;16.80;92.70;;;;;;5112016;28;20051;-66
2021/07/22 02:23:35;;;;;;;19.50;16.47;;;16.80;92.70;;;;;;5112793;28;20533;-66
2021/07/22 02:26:05;;;;;;;16.77;12.90;;;16.80;92.80;;;;;;5111935;28;20043;-66
2021/07/22 02:28:32;;;;;;;18.60;14.32;;;16.80;92.80;;;;;;5112748;28;20261;-66
2021/07/22 02:30:58;;;;;;;17.57;14.57;;;16.80;92.90;;;;;;5112591;28;20558;-66
2021/07/22 02:33:24;;;;;;;17.40;13.47;;;16.80;93.00;;;;;;5111651;28;20158;-66
2021/07/22 02:35:50;;;;;;;17.27;14.50;;;16.70;93.00;;;;;;5112318;28;20456;-66
2021/07/22 02:38:16;;;;;;;21.57;15.50;;;16.70;93.10;;;;;;5111841;28;20047;-66
2021/07/22 02:40:42;;;;;;;17.67;14.50;;;16.70;93.10;;;;;;5111712;28;20126;-65
2021/07/22 02:43:07;;;;;;;21.37;15.20;;;16.70;93.20;;;;;;5112077;28;20139;-66
2021/07/22 02:45:33;;;;;;;17.80;15.70;;;16.70;93.20;;;;;;5112237;28;20552;-66
2021/07/22 02:47:59;;;;;;;23.90;16.40;;;16.70;93.20;;;;;;5111462;28;20059;-65
2021/07/22 02:50:24;;;;;;;20.57;16.07;;;16.70;93.10;;;;;;5112055;28;20044;-65
2021/07/22 02:52:50;;;;;;;20.23;16.43;;;16.80;93.00;;;;;;5112221;28;20051;-65
2021/07/22 02:55:16;;;;;;;20.33;16.13;;;16.80;92.90;;;;;;5111156;28;20058;-66
2021/07/22 02:57:41;;;;;;;19.33;16.00;;;16.80;93.10;;;;;;5112328;28;20082;-65
2021/07/22 03:00:08;;;;;;;17.27;14.57;;;16.70;92.60;;;;;;5111901;28;20040;-66
2021/07/22 03:02:33;;;;;;;20.13;15.00;;;16.70;92.50;;;;;;5111310;28;20053;-66
2021/07/22 03:05:00;;;;;;;22.87;16.17;;;16.70;92.50;;;;;;5112036;28;20040;-66
2021/07/22 03:07:26;;;;;;;17.27;15.40;;;16.70;92.50;;;;;;5112198;28;20051;-65
2021/07/22 03:09:51;;;;;;;19.63;16.10;;;16.70;92.50;;;;;;5111375;28;20044;-66
2021/07/22 03:12:18;;;;;;;19.40;15.30;;;16.70;92.50;;;;;;5111612;28;20048;-65
2021/07/22 03:14:44;;;;;;;23.23;15.90;;;16.70;92.50;;;;;;5111754;28;20200;-65
2021/07/22 03:17:09;;;;;;;21.90;16.10;;;16.70;92.50;;;;;;5111230;28;20077;-65
2021/07/22 03:19:35;;;;;;;18.20;16.00;;;16.70;92.60;;;;;;5112116;28;20040;-66
2021/07/22 03:22:01;;;;;;;21.50;15.90;;;16.70;92.60;;;;;;5110850;28;20066;-66
2021/07/22 03:24:26;;;;;;;20.83;15.80;;;16.70;92.70;;;;;;5111984;28;20188;-66
2021/07/22 03:26:52;;;;;;;23.33;16.90;;;16.70;92.70;;;;;;5111969;28;20048;-66
2021/07/22 03:29:18;;;;;;;21.37;16.43;;;16.70;92.60;;;;;;5114037;28;20497;-66
2021/07/22 03:31:44;;;;;;;22.73;16.73;;;16.70;92.60;;;;;;5115794;28;20186;-66
2021/07/22 03:34:10;;;;;;;19.47;15.80;;;16.70;92.60;;;;;;5115885;28;20119;-66
2021/07/22 03:36:36;;;;;;;18.40;16.17;;;16.70;92.50;;;;;;5115242;28;20484;-66
2021/07/22 03:39:01;;;;;;;21.90;17.20;;;16.80;92.60;;;;;;5115573;28;20044;-66
2021/07/22 03:41:27;;;;;;;19.63;16.10;;;16.80;92.60;;;;;;5115928;28;20039;-66
2021/07/22 03:43:53;;;;;;;20.00;15.10;;;16.80;92.60;;;;;;5115061;28;20437;-65
2021/07/22 03:46:18;;;;;;;21.60;16.33;;;16.80;92.60;;;;;;5115308;28;20086;-66
2021/07/22 03:48:45;;;;;;;19.47;15.93;;;16.80;92.60;;;;;;5115620;28;20109;-66
2021/07/22 03:51:11;;;;;;;17.90;15.50;;;16.80;92.50;;;;;;5114770;28;20051;-66
2021/07/22 03:53:36;;;;;;;17.10;14.90;;;16.80;92.40;;;;;;5115564;28;20051;-66
2021/07/22 03:56:03;;;;;;;23.60;16.00;;;16.80;92.40;;;;;;5115423;28;20048;-66
2021/07/22 03:58:28;;;;;;;19.00;14.87;;;16.80;92.40;;;;;;5114724;28;20048;-66
2021/07/22 04:00:57;;;;;;;18.83;14.47;;;16.80;92.40;;;;;;5115464;28;20047;-66
2021/07/22 04:03:24;;;;;;;17.67;14.70;;;16.80;92.40;;;;;;5114967;28;20073;-66
2021/07/22 04:05:49;;;;;;;18.20;14.63;;;16.80;92.30;;;;;;5114839;28;20051;-66
2021/07/22 04:08:15;;;;;;;14.80;12.70;;;16.80;92.20;;;;;;5114927;28;20044;-66
2021/07/22 04:10:41;;;;;;;20.30;13.07;;;16.80;92.10;;;;;;5115470;28;20048;-66
2021/07/22 04:13:06;;;;;;;17.07;11.93;;;16.70;92.50;;;;;;5114324;28;20479;-66
2021/07/22 04:15:32;;;;;;;16.67;12.77;;;16.70;92.00;;;;;;5115178;28;20048;-66
2021/07/22 04:17:59;;;;;;;15.43;11.60;;;16.80;92.00;;;;;;5115360;28;20047;-66
2021/07/22 04:20:25;;;;;;;16.37;11.70;;;16.80;91.90;;;;;;5114538;28;20398;-66
2021/07/22 04:22:53;;;;;;;16.23;12.03;;;16.80;91.90;;;;;;5114869;28;20051;-66
2021/07/22 04:25:18;;;;;;;15.03;11.60;;;16.80;91.80;;;;;;5113858;28;20492;-66
2021/07/22 04:27:44;;;;;;;15.30;11.47;;;16.80;92.10;;;;;;5114889;28;20047;-66
2021/07/22 04:30:10;;;;;;;13.77;11.30;;;16.80;91.60;;;;;;5114532;28;20089;-66
2021/07/22 04:32:36;;;;;;;13.67;11.23;;;16.80;91.50;;;;;;5114114;28;20047;-66
2021/07/22 04:35:03;;;;;;;12.90;11.30;;;16.80;91.50;;;;;;5114629;28;20108;-66
2021/07/22 04:37:28;;;;;;;13.80;10.93;;;16.70;91.40;;;;;;5114703;28;20515;-66
2021/07/22 04:39:54;;;;;;;15.23;10.93;;;16.70;91.30;;;;;;5112346;28;20048;-66
2021/07/22 04:42:20;;;;;;;12.30;10.73;;;16.70;91.30;;;;;;5114332;28;20048;-66
2021/07/22 04:44:45;;;;;;;18.27;10.70;;;16.70;91.30;;;;;;5114447;28;20040;-66
2021/07/22 04:47:11;;;;;;;14.13;11.20;;;16.70;91.40;;;;;;5113685;28;20476;-66
2021/07/22 04:49:37;;;;;;;14.50;11.17;;;16.80;91.40;;;;;;5114600;28;20100;-66
2021/07/22 04:52:03;;;;;;;17.43;11.27;;;16.80;91.30;;;;;;5114228;28;20401;-66
2021/07/22 04:54:28;;;;;;;13.30;10.73;;;16.80;91.20;;;;;;5113753;28;20043;-65
2021/07/22 04:56:54;;;;;;;11.50;9.27;;;16.80;91.10;;;;;;5113902;28;20115;-65
2021/07/22 04:59:20;;;;;;;12.87;9.53;;;16.80;91.00;;;;;;5113980;28;20044;-66
2021/07/22 05:01:45;;;;;;;12.90;9.93;;;16.80;90.90;;;;;;5113651;28;20484;-65
2021/07/22 05:04:18;;;;;;;12.97;8.87;;;16.80;90.80;;;;;;5113860;28;20101;-66
2021/07/22 05:06:44;;;;;;;10.47;8.80;;;16.80;90.70;;;;;;5114173;28;20115;-66
2021/07/22 05:09:10;;;;;;;13.57;9.27;;;16.80;90.50;;;;;;5113054;28;20126;-66
2021/07/22 05:11:35;;;;;;;12.20;7.90;;;16.80;90.40;;;;;;5113957;28;20124;-66
2021/07/22 05:14:01;;;;;;;10.03;7.93;;;16.80;90.30;;;;;;5113641;28;20044;-66
2021/07/22 05:16:26;;;;;;;11.57;7.13;;;16.80;90.20;;;;;;5113389;28;20043;-66
2021/07/22 05:18:52;;;;;;;12.00;8.30;;;16.90;90.10;;;;;;5114008;28;20040;-66
2021/07/22 05:21:21;;;;;;;9.13;7.00;;;16.80;90.00;;;;;;5112759;28;20066;-66
2021/07/22 05:23:47;;;;;;;11.03;6.87;;;16.90;89.80;;;;;;5114141;28;20131;-66
2021/07/22 05:26:13;;;;;;;8.70;7.10;;;16.90;90.10;;;;;;5113472;28;20139;-66
2021/07/22 05:28:39;;;;;;;7.93;6.63;;;16.90;89.40;;;;;;5112679;28;20048;-66
2021/07/22 05:31:09;;;;;;;9.20;6.50;;;16.90;89.30;;;;;;5113503;27;20052;-66
2021/07/22 05:33:36;;;;;;;11.63;6.57;;;16.90;89.00;;;;;;5113704;28;20062;-66
2021/07/22 05:36:06;;;;;;;9.07;6.17;;;17.00;89.00;;;;;;5112608;28;20135;-66
2021/07/22 05:38:34;;;;;;;13.47;6.43;;;17.00;88.60;;;;;;5113460;27;20051;-66
2021/07/22 05:41:04;;;;;;;8.77;6.27;;;17.00;88.40;;;;;;5113233;28;20127;-66
2021/07/22 05:43:30;;;;;;;9.83;6.60;;;17.10;88.20;;;;;;5112909;28;20184;-66
2021/07/22 05:45:56;;;;;;;8.53;6.53;;;17.10;88.20;;;;;;5113424;28;20047;-66
2021/07/22 05:48:22;;;;;;;12.80;6.17;;;17.20;88.10;;;;;;5113100;28;20134;-66
2021/07/22 05:50:49;;;;;;;10.90;6.83;;;17.10;88.00;;;;;;5112372;28;20051;-65
2021/07/22 05:53:18;;;;;;;7.43;5.83;;;17.20;87.90;;;;;;5112151;28;20086;-66
2021/07/22 05:55:44;;;;;;;12.53;6.03;;;17.20;87.30;;;;;;5112617;28;20130;-66
2021/07/22 05:58:10;;;;;;;8.97;5.70;;;17.30;87.00;;;;;;5112184;28;20130;-66
2021/07/22 06:00:36;;;;;;;7.33;5.30;;;17.30;86.60;;;;;;5112781;28;20138;-66
2021/07/22 06:03:06;;;;;;;9.47;5.73;;;17.30;85.90;;;;;;5112685;28;20116;-66
2021/07/22 06:05:33;;;;;;;7.40;5.57;;;17.30;85.90;;;;;;5112341;27;20070;-66
2021/07/22 06:08:02;;;;;;;6.17;5.17;;;17.30;85.70;;;;;;5113160;28;20043;-66
2021/07/22 06:10:28;;;;;;;6.50;5.07;;;17.30;85.20;;;;;;5113095;28;20067;-66
2021/07/22 06:12:54;;;;;;;8.53;5.80;;;17.30;85.00;;;;;;5111420;28;20141;-65
2021/07/22 06:15:20;;;;;;;8.80;5.23;;;17.30;84.90;;;;;;5112099;28;20381;-66
2021/07/22 06:17:46;;;;;;;9.83;5.17;;;17.40;85.00;;;;;;5111648;28;20123;-66
2021/07/22 06:20:12;;;;;;;7.67;5.47;;;17.50;84.80;;;;;;5111830;28;20484;-66
2021/07/22 06:22:38;;;;;;;8.40;5.00;;;17.50;84.50;;;;;;5111697;28;20440;-66
2021/07/22 06:25:05;;;;;;;6.70;4.70;;;17.50;84.20;;;;;;5110629;28;20075;-66
2021/07/22 06:27:31;;;;;;;5.67;4.70;;;17.60;83.80;;;;;;5109697;28;20062;-66
2021/07/22 06:30:00;;;;;;;8.43;5.33;;;17.60;83.30;;;;;;5112144;28;20563;-66
2021/07/22 06:32:26;;;;;;;7.33;4.73;;;17.50;82.90;;;;;;5110285;28;20100;-66
2021/07/22 06:34:52;;;;;;;8.67;5.33;;;17.60;82.70;;;;;;5111618;28;20048;-66
2021/07/22 06:37:18;;;;;;;9.20;5.30;;;17.70;82.60;;;;;;5111378;28;20156;-66
2021/07/22 06:39:43;;;;;;;10.00;5.27;;;17.70;82.20;;;;;;5110568;28;20492;-66
2021/07/22 06:42:09;;;;;;;8.17;5.13;;;17.80;81.20;;;;;;5111663;28;20055;-66
2021/07/22 06:44:34;;;;;;;11.83;6.27;;;17.80;80.90;;;;;;5111654;28;20044;-66
2021/07/22 06:47:00;;;;;;;9.40;5.80;;;17.80;80.90;;;;;;5110898;28;20068;-66
2021/07/22 06:49:26;;;;;;;7.80;5.50;;;17.90;80.60;;;;;;5111504;28;20071;-66
2021/07/22 06:51:53;;;;;;;6.43;4.70;;;17.90;80.40;;;;;;5111841;28;20048;-66
2021/07/22 06:54:20;;;;;;;8.43;5.10;;;18.00;80.40;;;;;;5110682;28;20093;-66
2021/07/22 06:56:46;;;;;;;8.03;5.23;;;18.00;79.70;;;;;;5111371;28;20071;-66
2021/07/22 06:59:11;;;;;;;7.47;5.43;;;18.00;79.60;;;;;;5111480;28;20039;-66
2021/07/22 07:01:37;;;;;;;9.30;5.70;;;18.10;79.20;;;;;;5110788;28;20146;-66
2021/07/22 07:04:03;;;;;;;7.80;5.53;;;18.00;78.10;;;;;;5110939;28;20048;-66
2021/07/22 07:06:32;;;;;;;8.73;5.57;;;18.00;78.40;;;;;;5111418;27;20059;-66
2021/07/22 07:08:58;;;;;;;7.70;5.30;;;18.10;78.40;;;;;;5110646;28;20138;-65
2021/07/22 07:11:23;;;;;;;10.03;5.77;;;18.10;78.60;;;;;;5111044;28;20093;-66
2021/07/22 07:13:49;;;;;;;6.87;5.37;;;18.10;78.40;;;;;;5111333;28;20422;-65
2021/07/22 07:16:15;;;;;;;8.03;5.50;;;18.10;77.20;;;;;;5110005;28;20055;-66
2021/07/22 07:18:40;;;;;;;7.90;5.10;;;18.00;76.60;;;;;;5111405;28;20048;-66
2021/07/22 07:21:06;;;;;;;6.83;4.70;;;18.10;76.50;;;;;;5109884;28;20326;-66
2021/07/22 07:23:32;;;;;;;6.70;4.97;;;18.10;75.90;;;;;;5111340;28;20101;-66
2021/07/22 07:25:58;;;;;;;6.27;5.00;;;18.10;75.70;;;;;;5111368;28;20043;-66
2021/07/22 07:28:24;;;;;;;9.70;5.40;;;18.10;75.40;;;;;;5110306;28;20046;-66
2021/07/22 07:30:50;;;;;;;7.97;5.43;;;18.10;75.50;;;;;;5111046;28;20458;-66
2021/07/22 07:33:15;;;;;;;7.17;4.87;;;18.20;75.30;;;;;;5110657;28;20043;-66
2021/07/22 07:35:41;;;;;;;7.57;4.80;;;18.20;76.00;;;;;;5110098;28;20039;-65
2021/07/22 07:38:07;;;;;;;6.03;4.30;;;18.20;75.00;;;;;;5110813;28;20051;-66
2021/07/22 07:40:33;;;;;;;6.90;4.90;;;18.30;74.80;;;;;;5111085;28;20048;-66
2021/07/22 07:42:59;;;;;;;7.97;4.70;;;18.30;74.70;;;;;;5110566;28;20468;-66
2021/07/22 07:45:25;;;;;;;5.87;5.00;;;18.40;74.10;;;;;;5111055;28;20044;-66
2021/07/22 07:47:51;;;;;;;9.87;4.63;;;18.40;73.10;;;;;;5111100;28;20050;-66
2021/07/22 07:50:17;;;;;;;7.20;4.43;;;18.40;73.30;;;;;;5109521;28;20050;-66
2021/07/22 07:52:43;;;;;;;7.87;4.90;;;18.50;73.30;;;;;;5111006;28;20052;-66
2021/07/22 07:55:10;;;;;;;12.73;5.40;;;18.60;72.60;;;;;;5110240;28;20138;-66
2021/07/22 07:57:36;;;;;;;6.57;4.30;;;18.70;72.50;;;;;;5109876;28;20127;-66
2021/07/22 08:00:02;;;;;;;7.07;5.07;;;18.70;72.70;;;;;;5110204;28;20437;-66
2021/07/22 08:02:27;;;;;;;5.17;4.10;;;18.70;72.80;;;;;;5110653;28;20483;-66
2021/07/22 08:04:55;;;;;;;6.67;4.30;;;18.70;73.00;;;;;;5109726;28;20079;-66
2021/07/22 08:07:21;;;;;;;5.50;4.80;;;18.60;73.30;;;;;;5110563;28;20468;-66
2021/07/22 08:09:47;;;;;;;6.80;3.93;;;18.60;73.40;;;;;;5110539;28;20067;-66
2021/07/22 08:12:14;;;;;;;6.90;4.17;;;18.60;73.70;;;;;;5109714;28;20082;-66
2021/07/22 08:14:44;;;;;;;6.97;4.30;;;18.60;74.10;;;;;;5111517;28;20036;-66
2021/07/22 08:17:14;;;;;;;5.80;4.60;;;18.50;74.30;;;;;;5113658;28;20092;-67
2021/07/22 08:19:40;;;;;;;6.20;4.20;;;18.50;74.40;;;;;;5114520;28;20060;-65
2021/07/22 08:22:06;;;;;;;6.97;4.20;;;18.50;74.20;;;;;;5113729;28;20176;-67
2021/07/22 08:24:31;;;;;;;6.77;4.57;;;18.50;74.50;;;;;;5113463;28;20043;-66
2021/07/22 08:26:57;;;;;;;8.27;5.20;;;18.60;73.70;;;;;;5114553;28;20122;-66
2021/07/22 08:29:23;;;;;;;8.97;4.57;;;18.50;73.80;;;;;;5114220;28;20044;-66
2021/07/22 08:31:48;;;;;;;6.20;4.23;;;18.50;73.70;;;;;;5113870;28;20084;-66
2021/07/22 08:34:16;;;;;;;5.80;3.73;;;18.40;73.90;;;;;;5114376;28;20499;-66
2021/07/22 08:36:42;;;;;;;7.77;4.17;;;18.40;73.90;;;;;;5114444;28;20054;-66
2021/07/22 08:39:09;;;;;;;7.47;4.03;;;18.40;74.00;;;;;;5113275;28;20051;-66
2021/07/22 08:41:35;;;;;;;6.90;4.50;;;18.40;73.70;;;;;;5114206;28;20075;-66
2021/07/22 08:44:05;;;;;;;6.37;4.20;;;18.40;73.70;;;;;;5114075;28;20125;-66
2021/07/22 08:46:31;;;;;;;5.17;4.10;;;18.40;73.70;;;;;;5113092;28;20131;-66
2021/07/22 08:48:59;;;;;;;5.33;4.33;;;18.50;73.40;;;;;;5114212;28;20117;-66
2021/07/22 08:51:26;;;;;;;4.33;3.63;;;18.70;73.40;;;;;;5113791;28;20484;-66
2021/07/22 08:53:53;;;;;;;5.53;4.03;;;18.80;72.40;;;;;;5113540;28;20105;-68
2021/07/22 08:56:23;;;;;;;4.53;3.67;;;18.90;71.50;;;;;;5113829;28;20047;-66
2021/07/22 08:58:49;;;;;;;6.57;3.40;;;19.10;71.10;;;;;;5114125;28;20454;-66
2021/07/22 09:01:16;;;;;;;5.90;4.03;;;19.20;70.00;;;;;;5112923;28;20071;-66
2021/07/22 09:03:42;;;;;;;5.37;3.43;;;19.30;69.40;;;;;;5114162;28;20124;-66
2021/07/22 09:06:14;;;;;;;5.57;3.50;;;19.50;67.90;;;;;;5113931;28;20380;-66
2021/07/22 09:08:40;;;;;;;5.43;3.47;;;19.70;67.30;;;;;;5113018;28;20069;-66
2021/07/22 09:11:10;;;;;;;7.00;3.97;;;19.80;66.60;;;;;;5113592;28;20126;-66
2021/07/22 09:13:36;;;;;;;5.67;3.30;;;19.90;67.00;;;;;;5112924;28;20054;-65
2021/07/22 09:16:05;;;;;;;4.33;3.03;;;20.00;66.50;;;;;;5113184;28;20036;-66
2021/07/22 09:18:35;;;;;;;6.90;3.60;;;20.00;66.70;;;;;;5113588;28;20362;-66
2021/07/22 09:21:22;;;;;;;7.20;3.87;;;20.10;66.80;;;;;;5112593;28;20057;-67
2021/07/22 09:24:08;;;;;;;7.43;3.13;;;20.10;63.60;;;;;;5113515;28;20043;-66
2021/07/22 09:26:36;;;;;;;7.53;3.90;;;20.20;64.50;;;;;;5113592;28;20040;-66
2021/07/22 09:29:10;;;;;;;6.40;3.33;;;20.30;66.70;;;;;;5112956;28;20115;-63
2021/07/22 09:31:37;;;;;;;5.90;3.92;;;20.40;66.80;;;;;;5113310;28;20142;-67
2021/07/22 09:34:15;;;;;;;5.03;3.47;;;20.60;67.60;;;;;;5112727;28;20054;-65
2021/07/22 09:36:41;;;;;;;6.07;3.78;;;20.80;65.20;;;;;;5112374;28;20131;-65
2021/07/22 09:39:19;;;;;;;6.38;3.67;;;21.00;65.40;;;;;;5112865;28;20079;-65
2021/07/22 09:41:55;;;;;;;6.35;3.28;;;21.10;63.40;;;;;;5112409;28;20040;-65
2021/07/22 09:44:28;;;;;;;5.70;3.63;;;21.20;62.20;;;;;;5112455;28;20051;-65
2021/07/22 09:46:57;;;;;;;4.80;3.50;;;21.30;60.80;;;;;;5112850;28;20048;-65
2021/07/22 09:49:42;;;;;;;7.95;3.95;;;21.40;60.80;;;;;;5112150;28;20126;-65
2021/07/22 09:52:23;;;;;;;6.45;3.63;;;21.60;58.70;;;;;;5112426;28;20086;-65
2021/07/22 09:54:50;;;;;;;6.97;3.58;;;21.50;58.80;;;;;;5113061;28;20052;-65
2021/07/22 09:57:17;;;;;;;6.20;3.45;;;21.40;59.80;;;;;;5111669;28;20116;-65
2021/07/22 09:59:44;;;;;;;4.85;3.65;;;21.30;60.00;;;;;;5112935;28;20135;-64
2021/07/22 10:02:22;;;;;;;5.70;3.53;;;21.10;60.40;;;;;;5112362;28;20118;-63
2021/07/22 10:04:54;;;;;;;5.80;3.90;;;20.90;59.90;;;;;;5112222;27;20054;-65
2021/07/22 10:07:21;;;;;;;5.73;3.77;;;20.70;60.30;;;;;;5112022;28;20069;-65
2021/07/22 10:09:51;;;;;;;5.60;3.87;;;20.50;60.60;;;;;;5111186;28;20066;-65
2021/07/22 10:12:21;;;;;;;5.73;3.57;;;20.40;61.30;;;;;;5111920;28;20055;-65
2021/07/22 10:14:56;;;;;;;5.23;3.43;;;20.40;61.00;;;;;;5112501;28;20066;-65
2021/07/22 10:17:27;;;;;;;6.43;3.93;;;20.50;61.00;;;;;;5110712;28;20067;-66
2021/07/22 10:19:56;;;;;;;5.30;3.97;;;20.40;60.40;;;;;;5112828;28;20131;-65
2021/07/22 10:22:22;;;;;;;5.90;3.30;;;20.30;60.70;;;;;;5111312;28;20066;-65
2021/07/22 10:24:51;;;;;;;4.53;3.60;;;20.20;61.40;;;;;;5111573;28;20139;-65
2021/07/22 10:27:17;;;;;;;5.83;3.40;;;20.40;61.20;;;;;;5111746;28;20124;-65
2021/07/22 10:29:45;;;;;;;7.13;3.63;;;20.50;61.20;;;;;;5112245;28;20122;-65
2021/07/22 10:32:15;;;;;;;4.00;3.47;;;20.70;60.00;;;;;;5110922;28;20146;-65
2021/07/22 10:34:41;;;;;;;5.80;3.60;;;21.00;59.10;;;;;;5111964;28;20086;-65
2021/07/22 10:37:07;;;;;;;6.97;3.47;;;21.20;58.60;;;;;;5111148;28;20052;-65
2021/07/22 10:39:57;;;;;;;4.93;3.30;;;21.20;58.50;;;;;;5111265;28;20044;-65
2021/07/22 10:43:02;;;;;;;5.97;3.30;;;21.20;58.90;;;;;;5111132;28;20043;-65
2021/07/22 10:45:29;;;;;;;4.53;3.30;;;21.00;58.50;;;;;;5048754;28;20053;-65
2021/07/22 10:48:05;;;;;;;3.73;3.27;;;20.90;59.00;;;;;;5049484;28;20135;-65
2021/07/22 10:50:40;;;;;;;5.77;3.30;;;21.00;58.70;;;;;;5083770;28;20059;-65
2021/07/22 10:53:06;;;;;;;5.93;3.00;;;21.10;58.50;;;;;;5110991;28;20044;-65
2021/07/22 10:55:42;;;;;;;7.73;4.00;;;21.10;58.30;;;;;;5112054;28;20454;-65
2021/07/22 10:58:29;;;;;;;6.15;4.35;;;21.20;58.40;;;;;;5111741;28;20408;-65
2021/07/22 11:00:55;;;;;;;4.47;3.40;;;21.10;58.70;;;;;;5111310;28;20504;-65
2021/07/22 11:03:36;;;;;;;4.37;3.40;;;21.00;59.20;;;;;;5111863;28;20047;-65
2021/07/22 11:06:06;;;;;;;6.18;3.83;;;21.00;58.40;;;;;;5110967;28;20086;-65
2021/07/22 11:08:33;;;;;;;4.97;3.53;;;21.10;58.80;;;;;;5112501;28;20071;-65
2021/07/22 11:11:03;;;;;;;7.97;4.10;;;21.30;58.60;;;;;;5111554;28;20488;-65
2021/07/22 11:13:38;;;;;;;4.60;3.40;;;21.30;58.00;;;;;;5110993;28;20058;-65
2021/07/22 11:16:04;;;;;;;4.22;3.45;;;21.10;58.10;;;;;;5111518;28;20464;-65
2021/07/22 11:18:49;;;;;;;7.27;3.60;;;21.20;58.40;;;;;;5111424;28;20047;-65
2021/07/22 11:21:18;;;;;;;6.43;3.60;;;21.20;58.00;;;;;;5110842;28;20155;-66
2021/07/22 11:23:56;;;;;;;4.93;3.30;;;21.10;57.90;;;;;;5111377;28;20469;-66
2021/07/22 11:26:23;;;;;;;5.07;3.37;;;21.00;58.10;;;;;;5111328;28;20093;-65
2021/07/22 11:28:51;;;;;;;7.17;3.60;;;21.00;57.90;;;;;;5110297;28;20441;-65
2021/07/22 11:31:17;;;;;;;5.17;3.47;;;21.10;57.60;;;;;;5111622;28;20067;-65
2021/07/22 11:33:43;;;;;;;6.37;3.70;;;21.30;57.80;;;;;;5111848;28;20475;-65
2021/07/22 11:36:12;;;;;;;5.03;4.07;;;21.40;57.80;;;;;;5110592;28;20140;-65
2021/07/22 11:38:41;;;;;;;6.73;3.67;;;21.20;57.50;;;;;;5111378;28;20051;-65
2021/07/22 11:41:11;;;;;;;6.30;3.83;;;21.30;58.20;;;;;;5110730;28;20393;-65
2021/07/22 11:43:44;;;;;;;5.03;3.78;;;21.30;58.30;;;;;;5111583;28;20047;-66
2021/07/22 11:46:12;;;;;;;5.17;3.73;;;21.50;57.40;;;;;;5111304;28;20206;-65
2021/07/22 11:48:39;;;;;;;5.50;4.10;;;21.60;57.40;;;;;;5110785;28;20052;-65
2021/07/22 11:51:08;;;;;;;5.40;3.53;;;21.60;56.90;;;;;;5114012;28;20052;-65
2021/07/22 11:53:34;;;;;;;5.93;3.80;;;21.70;57.00;;;;;;5115573;28;20203;-65
2021/07/22 11:56:13;;;;;;;6.37;3.70;;;21.80;56.40;;;;;;5114598;28;20580;-66
2021/07/22 11:58:40;;;;;;;5.70;4.10;;;21.80;56.00;;;;;;5115375;28;20556;-65
2021/07/22 12:01:08;;;;;;;5.90;3.63;;;21.70;56.20;;;;;;5115117;28;20047;-65
2021/07/22 12:03:34;;;;;;;6.07;4.13;;;21.80;56.50;;;;;;5114351;28;20137;-65
2021/07/22 12:06:00;;;;;;;4.60;4.03;;;21.80;56.20;;;;;;5114765;28;20048;-65
2021/07/22 12:08:28;;;;;;;6.90;3.55;;;21.90;55.60;;;;;;5115225;28;20058;-65
2021/07/22 12:10:59;;;;;;;4.13;3.73;;;21.90;55.70;;;;;;5114356;28;20516;-66
2021/07/22 12:13:25;;;;;;;;;;;21.90;54.90;;;;;;5115622;28;20138;-65
2021/07/22 12:15:51;;;;;;;5.15;3.35;;;21.80;55.90;;;;;;5115487;28;19958;-65
2021/07/22 12:18:21;;;;;;;5.30;3.83;;;21.80;56.10;;;;;;5114460;28;20059;-65
2021/07/22 12:20:47;;;;;;;4.55;3.17;;;21.80;56.00;;;;;;5114950;28;20105;-65
2021/07/22 12:23:33;;;;;;;5.50;4.20;;;21.90;55.40;;;;;;5114561;28;20051;-65
2021/07/22 12:26:01;;;;;;;4.35;3.50;;;21.90;55.50;;;;;;5115086;28;20052;-65
2021/07/22 12:28:28;;;;;;;4.72;3.90;;;22.00;55.70;;;;;;5114451;28;20444;-65
2021/07/22 12:30:54;;;;;;;5.57;4.17;;;22.00;55.20;;;;;;5114136;28;20416;-66
2021/07/22 12:33:25;;;;;;;5.43;4.05;;;21.90;55.40;;;;;;5114532;28;20051;-66
2021/07/22 12:35:52;;;;;;;4.75;3.60;;;21.90;55.60;;;;;;5115255;28;20131;-65
2021/07/22 12:38:17;;;;;;;5.95;3.90;;;21.90;55.60;;;;;;5114124;28;20052;-65
2021/07/22 12:40:48;;;;;;;5.20;3.60;;;21.90;56.00;;;;;;5115312;28;20039;-66